createdAt,value
2023-07-23T00:01:57.571Z,52.00
2023-07-23T00:04:26.878Z,52.00
2023-07-23T00:06:54.866Z,51.90
2023-07-23T00:09:22.797Z,51.90
2023-07-23T00:11:50.899Z,51.90
2023-07-23T00:14:18.807Z,51.90
2023-07-23T00:16:46.708Z,51.90
2023-07-23T00:19:20.301Z,51.90
2023-07-23T00:21:50.371Z,51.90
2023-07-23T00:24:20.768Z,51.90
2023-07-23T00:26:48.915Z,51.90
2023-07-23T00:29:17.114Z,51.80
2023-07-23T00:31:45.072Z,51.90
2023-07-23T00:34:13.072Z,51.90
2023-07-23T00:36:41.068Z,51.90
2023-07-23T00:39:10.338Z,51.80
2023-07-23T00:41:38.282Z,51.90
2023-07-23T00:44:06.443Z,51.80
2023-07-23T00:46:36.220Z,51.80
2023-07-23T00:49:05.780Z,51.80
2023-07-23T00:51:34.735Z,51.80
2023-07-23T00:54:02.818Z,51.80
2023-07-23T00:56:32.726Z,51.80
2023-07-23T00:59:00.726Z,51.70
2023-07-23T01:01:31.704Z,51.70
2023-07-23T01:03:59.921Z,51.70
2023-07-23T01:06:29.954Z,51.70
2023-07-23T01:08:58.620Z,51.70
2023-07-23T01:11:28.208Z,51.70
2023-07-23T01:13:58.141Z,51.70
2023-07-23T01:16:26.299Z,51.70
2023-07-23T01:18:55.200Z,51.70
2023-07-23T01:21:23.145Z,51.70
2023-07-23T01:23:52.419Z,51.70
2023-07-23T01:26:22.961Z,51.70
2023-07-23T01:28:50.934Z,51.70
2023-07-23T01:31:18.909Z,51.70
2023-07-23T01:33:47.773Z,51.70
2023-07-23T01:36:17.040Z,51.70
2023-07-23T01:38:44.986Z,51.70
2023-07-23T01:41:14.348Z,51.70
2023-07-23T01:43:43.874Z,51.70
2023-07-23T01:46:11.920Z,51.70
2023-07-23T01:48:39.924Z,51.70
2023-07-23T01:51:09.845Z,51.70
2023-07-23T01:53:37.823Z,51.70
2023-07-23T01:56:05.946Z,51.70
2023-07-23T01:58:35.261Z,51.70
2023-07-23T02:01:05.598Z,51.70
2023-07-23T02:03:33.673Z,51.70
2023-07-23T02:06:03.184Z,51.60
2023-07-23T02:08:31.943Z,51.60
2023-07-23T02:11:01.452Z,51.70
2023-07-23T02:13:29.522Z,51.70
2023-07-23T02:15:58.814Z,51.60
2023-07-23T02:18:26.806Z,51.60
2023-07-23T02:20:54.706Z,51.60
2023-07-23T02:23:22.658Z,51.60
2023-07-23T02:25:50.861Z,51.70
2023-07-23T02:28:19.061Z,51.70
2023-07-23T02:30:46.996Z,51.60
2023-07-23T02:33:18.755Z,51.60
2023-07-23T02:35:46.702Z,51.60
2023-07-23T02:38:14.648Z,51.60
2023-07-23T02:40:42.581Z,51.60
2023-07-23T02:43:13.368Z,51.60
2023-07-23T02:45:41.712Z,51.60
2023-07-23T02:48:09.699Z,51.60
2023-07-23T02:50:40.681Z,51.60
2023-07-23T02:53:08.907Z,51.60
2023-07-23T02:55:37.169Z,51.60
2023-07-23T02:58:05.989Z,51.60
2023-07-23T03:00:34.322Z,51.60
2023-07-23T03:03:03.200Z,51.60
2023-07-23T03:05:31.190Z,51.60
2023-07-23T03:08:00.543Z,51.60
2023-07-23T03:10:28.925Z,51.60
2023-07-23T03:12:56.922Z,51.50
2023-07-23T03:19:12.284Z,51.50
2023-07-23T03:21:40.303Z,51.60
2023-07-23T03:24:10.191Z,51.50
2023-07-23T03:26:38.149Z,51.50
2023-07-23T03:29:06.127Z,51.50
2023-07-23T03:31:34.404Z,51.50
2023-07-23T03:34:02.397Z,51.50
2023-07-23T03:36:30.363Z,51.50
2023-07-23T03:38:58.315Z,51.50
2023-07-23T03:41:27.996Z,51.50
2023-07-23T03:43:56.289Z,51.50
2023-07-23T03:46:24.290Z,51.50
2023-07-23T03:48:52.313Z,51.50
2023-07-23T03:51:22.241Z,51.50
2023-07-23T03:53:50.166Z,51.50
2023-07-23T03:56:18.181Z,51.50
2023-07-23T03:58:47.465Z,52.20
2023-07-23T04:01:15.696Z,51.50
2023-07-23T04:03:44.063Z,51.50
2023-07-23T04:06:13.021Z,51.50
2023-07-23T04:08:40.945Z,51.50
2023-07-23T04:11:09.250Z,51.50
2023-07-23T04:13:37.191Z,51.50
2023-07-23T04:16:11.543Z,51.50
2023-07-23T04:18:49.982Z,51.50
2023-07-23T04:21:19.670Z,51.60
2023-07-23T04:23:48.521Z,51.50
2023-07-23T04:26:17.111Z,51.60
2023-07-23T04:28:45.123Z,51.60
2023-07-23T04:31:14.728Z,51.50
2023-07-23T04:33:42.807Z,51.50
2023-07-23T04:36:11.262Z,51.50
2023-07-23T04:38:39.268Z,51.50
2023-07-23T04:41:07.418Z,51.50
2023-07-23T04:43:36.510Z,51.50
2023-07-23T04:46:05.926Z,51.50
2023-07-23T04:48:35.665Z,51.50
2023-07-23T04:51:05.452Z,51.50
2023-07-23T04:53:33.518Z,51.50
2023-07-23T04:56:03.175Z,51.50
2023-07-23T04:58:31.729Z,51.50
2023-07-23T05:01:02.336Z,51.50
2023-07-23T05:03:30.413Z,51.50
2023-07-23T05:06:04.440Z,51.50
2023-07-23T05:08:33.021Z,51.50
2023-07-23T05:11:02.192Z,51.50
2023-07-23T05:13:30.651Z,51.60
2023-07-23T05:16:00.345Z,51.50
2023-07-23T05:18:28.556Z,51.40
2023-07-23T05:20:56.825Z,51.60
2023-07-23T05:23:26.248Z,51.60
2023-07-23T05:25:56.313Z,51.40
2023-07-23T05:28:24.214Z,51.40
2023-07-23T05:30:52.186Z,51.50
2023-07-23T05:33:20.166Z,51.40
2023-07-23T05:35:48.087Z,51.50
2023-07-23T05:38:15.968Z,51.50
2023-07-23T05:40:45.209Z,51.50
2023-07-23T05:43:17.797Z,51.50
2023-07-23T05:45:45.867Z,51.50
2023-07-23T05:48:13.786Z,51.50
2023-07-23T05:50:41.754Z,51.50
2023-07-23T05:53:09.644Z,51.50
2023-07-23T05:55:37.531Z,51.50
2023-07-23T05:58:07.038Z,51.50
2023-07-23T06:00:35.035Z,51.50
2023-07-23T06:03:03.056Z,51.50
2023-07-23T06:05:31.036Z,51.50
2023-07-23T06:07:58.930Z,51.50
2023-07-23T06:10:26.934Z,51.50
2023-07-23T06:12:54.856Z,51.50
2023-07-23T06:15:24.480Z,51.50
2023-07-23T06:17:52.542Z,51.60
2023-07-23T06:20:20.535Z,51.50
2023-07-23T06:22:48.422Z,51.60
2023-07-23T06:25:16.498Z,51.60
2023-07-23T06:27:44.428Z,51.50
2023-07-23T06:30:12.881Z,51.50
2023-07-23T06:32:42.564Z,51.50
2023-07-23T06:35:11.982Z,51.50
2023-07-23T06:37:41.859Z,51.50
2023-07-23T06:40:10.964Z,51.50
2023-07-23T06:42:38.853Z,51.50
2023-07-23T06:45:07.711Z,51.50
2023-07-23T06:47:35.700Z,51.60
2023-07-23T06:50:05.487Z,51.60
2023-07-23T06:52:33.402Z,51.60
2023-07-23T06:55:01.296Z,51.60
2023-07-23T06:57:29.194Z,51.60
2023-07-23T06:59:57.102Z,51.60
2023-07-23T07:02:25.070Z,51.60
2023-07-23T07:04:53.237Z,51.50
2023-07-23T07:07:24.697Z,51.50
2023-07-23T07:09:54.680Z,51.50
2023-07-23T07:12:22.887Z,51.60
2023-07-23T07:14:50.784Z,51.60
2023-07-23T07:17:18.739Z,51.60
2023-07-23T07:19:46.640Z,51.60
2023-07-23T07:22:14.738Z,51.60
2023-07-23T07:24:44.108Z,51.60
2023-07-23T07:27:12.222Z,51.60
2023-07-23T07:29:42.084Z,51.60
2023-07-23T07:32:10.237Z,51.70
2023-07-23T07:34:38.136Z,51.60
2023-07-23T07:37:06.675Z,51.70
2023-07-23T07:39:35.599Z,51.70
2023-07-23T07:42:05.296Z,51.70
2023-07-23T07:44:33.996Z,51.70
2023-07-23T07:47:01.993Z,51.70
2023-07-23T07:49:29.955Z,51.70
2023-07-23T07:51:57.848Z,51.70
2023-07-23T07:54:25.813Z,51.70
2023-07-23T07:56:54.176Z,51.70
2023-07-23T07:59:24.071Z,51.70
2023-07-23T08:01:52.438Z,51.70
2023-07-23T08:04:21.107Z,51.60
2023-07-23T08:06:50.544Z,51.70
2023-07-23T08:09:20.784Z,51.70
2023-07-23T08:11:49.597Z,51.60
2023-07-23T08:14:19.770Z,51.70
2023-07-23T08:16:51.065Z,51.70
2023-07-23T08:19:19.585Z,51.80
2023-07-23T08:21:48.038Z,51.80
2023-07-23T08:24:16.861Z,51.80
2023-07-23T08:26:48.430Z,51.70
2023-07-23T08:29:17.775Z,51.70
2023-07-23T08:31:46.254Z,51.70
2023-07-23T08:34:17.497Z,52.30
2023-07-23T08:36:46.361Z,51.60
2023-07-23T08:39:15.042Z,51.80
2023-07-23T08:42:03.499Z,51.70
2023-07-23T08:45:00.776Z,51.70
2023-07-23T08:47:29.230Z,51.70
2023-07-23T08:50:01.375Z,51.70
2023-07-23T08:52:33.032Z,51.70
2023-07-23T08:55:01.032Z,51.70
2023-07-23T08:57:30.080Z,51.70
2023-07-23T09:00:00.619Z,51.70
2023-07-23T09:02:29.147Z,51.70
2023-07-23T09:04:58.442Z,51.70
2023-07-23T09:07:27.677Z,51.70
2023-07-23T09:09:56.075Z,51.70
2023-07-23T09:12:24.038Z,51.70
2023-07-23T09:14:52.306Z,51.70
2023-07-23T09:17:21.467Z,51.70
2023-07-23T09:19:50.080Z,51.70
2023-07-23T09:22:20.627Z,51.60
2023-07-23T09:24:48.629Z,51.70
2023-07-23T09:27:17.434Z,51.60
2023-07-23T09:29:45.394Z,51.60
2023-07-23T09:32:26.776Z,51.60
2023-07-23T09:34:55.811Z,51.70
2023-07-23T09:37:25.213Z,51.60
2023-07-23T09:39:57.249Z,51.60
2023-07-23T09:42:25.385Z,51.60
2023-07-23T09:44:54.103Z,51.70
2023-07-23T09:47:26.420Z,51.60
2023-07-23T09:49:55.261Z,51.70
2023-07-23T09:52:34.332Z,51.60
2023-07-23T09:55:03.770Z,51.60
2023-07-23T09:57:34.349Z,51.60
2023-07-23T10:00:04.691Z,51.60
2023-07-23T10:02:36.198Z,51.60
2023-07-23T10:05:05.689Z,51.60
2023-07-23T10:07:35.938Z,51.60
2023-07-23T10:10:03.970Z,51.60
2023-07-23T10:12:31.890Z,51.60
2023-07-23T10:14:59.958Z,51.60
2023-07-23T10:17:30.137Z,51.60
2023-07-23T10:19:58.922Z,51.60
2023-07-23T10:22:27.193Z,51.60
2023-07-23T10:24:56.466Z,51.60
2023-07-23T10:27:25.296Z,51.60
2023-07-23T10:30:18.491Z,51.60
2023-07-23T10:32:49.368Z,51.60
2023-07-23T10:35:56.815Z,51.60
2023-07-23T10:38:26.544Z,51.60
2023-07-23T10:40:56.366Z,51.60
2023-07-23T10:43:24.739Z,51.60
2023-07-23T10:46:04.000Z,51.60
2023-07-23T10:48:40.717Z,51.60
2023-07-23T10:51:10.367Z,51.50
2023-07-23T10:53:43.093Z,51.50
2023-07-23T10:56:30.612Z,51.60
2023-07-23T10:59:00.359Z,51.50
2023-07-23T11:01:30.303Z,51.60
2023-07-23T11:03:59.614Z,51.60
2023-07-23T11:06:29.374Z,51.50
2023-07-23T11:08:59.827Z,51.50
2023-07-23T11:11:38.580Z,51.50
2023-07-23T11:14:19.019Z,51.50
2023-07-23T11:16:47.983Z,51.50
2023-07-23T11:19:16.066Z,51.60
2023-07-23T11:21:48.989Z,51.60
2023-07-23T11:24:16.919Z,51.60
2023-07-23T11:26:46.434Z,51.50
2023-07-23T11:29:15.191Z,51.50
2023-07-23T11:31:43.929Z,51.50
2023-07-23T11:34:13.831Z,51.50
2023-07-23T11:36:44.051Z,51.50
2023-07-23T11:39:12.826Z,51.50
2023-07-23T11:41:43.304Z,51.50
2023-07-23T11:44:13.103Z,51.50
2023-07-23T11:46:42.599Z,51.50
2023-07-23T11:49:11.961Z,51.50
2023-07-23T11:51:41.156Z,51.50
2023-07-23T11:54:10.956Z,51.50
2023-07-23T11:56:40.519Z,51.50
2023-07-23T11:59:14.718Z,51.50
2023-07-23T12:01:48.258Z,51.50
2023-07-23T12:04:16.709Z,51.50
2023-07-23T12:06:45.033Z,51.50
2023-07-23T12:09:14.242Z,51.40
2023-07-23T12:11:44.628Z,51.40
2023-07-23T12:14:17.182Z,51.50
2023-07-23T12:16:48.431Z,51.40
2023-07-23T12:19:17.962Z,51.40
2023-07-23T12:21:47.420Z,51.40
2023-07-23T12:24:20.992Z,51.40
2023-07-23T12:26:50.874Z,51.40
2023-07-23T12:29:19.461Z,51.40
2023-07-23T12:31:50.811Z,51.40
2023-07-23T12:34:20.678Z,51.40
2023-07-23T12:36:49.551Z,51.40
2023-07-23T12:39:17.453Z,51.20
2023-07-23T12:41:45.366Z,51.30
2023-07-23T12:44:13.406Z,51.20
2023-07-23T12:46:41.439Z,51.30
2023-07-23T12:49:10.969Z,51.30
2023-07-23T12:51:38.832Z,51.30
2023-07-23T12:54:06.779Z,51.30
2023-07-23T12:56:34.836Z,51.30
2023-07-23T12:59:02.762Z,51.30
2023-07-23T13:01:30.670Z,51.30
2023-07-23T13:03:58.749Z,51.30
2023-07-23T13:06:28.388Z,51.30
2023-07-23T13:08:56.742Z,51.30
2023-07-23T13:11:24.671Z,51.30
2023-07-23T13:13:52.725Z,51.30
2023-07-23T13:16:20.627Z,51.30
2023-07-23T13:18:48.689Z,51.40
2023-07-23T13:21:16.693Z,51.30
2023-07-23T13:23:45.962Z,51.30
2023-07-23T13:26:13.845Z,51.40
2023-07-23T13:28:41.851Z,51.40
2023-07-23T13:31:09.983Z,51.40
2023-07-23T13:33:37.987Z,51.30
2023-07-23T13:36:06.434Z,51.40
2023-07-23T13:38:36.415Z,52.00
2023-07-23T13:41:07.057Z,51.40
2023-07-23T13:43:35.000Z,51.40
2023-07-23T13:46:02.937Z,51.40
2023-07-23T13:48:31.262Z,51.40
2023-07-23T13:50:59.263Z,51.40
2023-07-23T13:53:27.149Z,51.40
2023-07-23T13:55:55.080Z,51.30
2023-07-23T13:58:24.378Z,51.40
2023-07-23T14:00:52.290Z,51.40
2023-07-23T14:03:20.240Z,51.40
2023-07-23T14:05:48.145Z,51.40
2023-07-23T14:08:16.070Z,51.40
2023-07-23T14:10:43.958Z,51.30
2023-07-23T14:13:11.856Z,51.40
2023-07-23T14:15:41.120Z,51.30
2023-07-23T14:18:09.192Z,51.30
2023-07-23T14:20:37.129Z,51.20
2023-07-23T14:23:05.103Z,51.30
2023-07-23T14:25:33.037Z,51.30
2023-07-23T14:28:00.920Z,51.30
2023-07-23T14:30:29.070Z,51.30
2023-07-23T14:32:58.399Z,51.30
2023-07-23T14:35:28.279Z,51.30
2023-07-23T14:37:56.203Z,51.30
2023-07-23T14:40:24.364Z,51.30
2023-07-23T14:42:52.210Z,51.30
2023-07-23T14:45:21.247Z,51.40
2023-07-23T14:47:50.246Z,51.20
2023-07-23T14:50:21.262Z,51.30
2023-07-23T14:52:49.192Z,51.40
2023-07-23T14:55:17.169Z,51.30
2023-07-23T14:57:45.070Z,51.30
2023-07-23T15:00:14.679Z,51.40
2023-07-23T15:02:42.797Z,51.40
2023-07-23T15:05:10.888Z,51.60
2023-07-23T15:07:40.132Z,51.50
2023-07-23T15:10:08.817Z,51.50
2023-07-23T15:12:37.340Z,51.50
2023-07-23T15:15:06.513Z,51.40
2023-07-23T15:17:35.139Z,51.40
2023-07-23T15:20:03.638Z,51.50
2023-07-23T15:22:32.112Z,51.50
2023-07-23T15:25:02.279Z,51.40
2023-07-23T15:27:33.718Z,51.40
2023-07-23T15:30:01.829Z,51.40
2023-07-23T15:32:29.934Z,51.40
2023-07-23T15:34:57.859Z,51.40
2023-07-23T15:37:25.782Z,51.40
2023-07-23T15:39:53.693Z,51.40
2023-07-23T15:42:23.673Z,51.40
2023-07-23T15:44:51.799Z,51.40
2023-07-23T15:47:19.974Z,51.40
2023-07-23T15:49:47.950Z,51.40
2023-07-23T15:52:15.863Z,51.50
2023-07-23T15:54:43.801Z,51.50
2023-07-23T15:57:11.683Z,51.50
2023-07-23T15:59:40.940Z,51.50
2023-07-23T16:02:08.837Z,51.50
2023-07-23T16:04:38.339Z,51.50
2023-07-23T16:07:06.632Z,51.50
2023-07-23T16:09:34.591Z,51.50
2023-07-23T16:12:03.654Z,51.50
2023-07-23T16:14:31.582Z,51.50
2023-07-23T16:17:00.918Z,51.50
2023-07-23T16:19:28.895Z,52.10
2023-07-23T16:21:56.821Z,52.10
2023-07-23T16:24:25.087Z,51.50
2023-07-23T16:26:55.324Z,51.50
2023-07-23T16:29:23.322Z,51.50
2023-07-23T16:31:51.651Z,51.50
2023-07-23T16:34:21.395Z,51.60
2023-07-23T16:36:51.712Z,51.50
2023-07-23T16:39:20.398Z,51.50
2023-07-23T16:41:48.489Z,51.50
2023-07-23T16:44:16.720Z,51.50
2023-07-23T16:46:44.842Z,51.50
2023-07-23T16:49:12.780Z,51.50
2023-07-23T16:51:42.162Z,51.50
2023-07-23T16:54:10.087Z,51.50
2023-07-23T16:56:38.055Z,51.40
2023-07-23T16:59:05.940Z,51.40
2023-07-23T17:01:34.088Z,51.40
2023-07-23T17:04:02.076Z,51.40
2023-07-23T17:06:30.245Z,51.40
2023-07-23T17:08:59.640Z,51.50
2023-07-23T17:11:27.827Z,51.50
2023-07-23T17:13:55.913Z,51.60
2023-07-23T17:16:23.866Z,51.50
2023-07-23T17:18:51.751Z,51.50
2023-07-23T17:21:19.716Z,51.40
2023-07-23T17:23:47.590Z,51.50
2023-07-23T17:26:16.876Z,51.60
2023-07-23T17:28:44.753Z,51.50
2023-07-23T17:31:12.718Z,51.60
2023-07-23T17:33:40.601Z,51.50
2023-07-23T17:36:08.473Z,51.60
2023-07-23T17:38:36.397Z,51.60
2023-07-23T17:41:04.337Z,51.60
2023-07-23T17:43:33.599Z,51.60
2023-07-23T17:46:01.555Z,51.60
2023-07-23T17:48:29.518Z,51.60
2023-07-23T17:50:57.474Z,51.60
2023-07-23T17:53:25.356Z,51.60
2023-07-23T17:55:53.590Z,51.60
2023-07-23T17:58:21.477Z,51.60
2023-07-23T18:00:50.722Z,51.60
2023-07-23T18:03:19.672Z,51.70
2023-07-23T18:05:52.059Z,51.60
2023-07-23T18:08:20.966Z,51.70
2023-07-23T18:10:49.052Z,51.70
2023-07-23T18:13:17.222Z,51.70
2023-07-23T18:15:46.407Z,51.70
2023-07-23T18:18:15.672Z,51.70
2023-07-23T18:20:44.933Z,51.70
2023-07-23T18:23:12.852Z,51.70
2023-07-23T18:25:54.311Z,51.70
2023-07-23T18:28:31.541Z,51.70
2023-07-23T18:31:00.453Z,51.70
2023-07-23T18:33:29.736Z,51.70
2023-07-23T18:35:57.814Z,51.70
2023-07-23T18:38:25.810Z,51.70
2023-07-23T18:40:54.487Z,51.70
2023-07-23T18:43:22.423Z,51.70
2023-07-23T18:45:50.723Z,51.70
2023-07-23T18:48:19.083Z,51.70
2023-07-23T18:50:48.316Z,51.70
2023-07-23T18:53:16.203Z,51.70
2023-07-23T18:55:44.183Z,51.70
2023-07-23T18:58:12.065Z,51.70
2023-07-23T19:00:39.976Z,51.70
2023-07-23T19:03:08.086Z,51.70
2023-07-23T19:05:36.033Z,51.70
2023-07-23T19:08:05.268Z,51.70
2023-07-23T19:10:33.167Z,51.70
2023-07-23T19:13:01.077Z,51.70
2023-07-23T19:15:29.052Z,51.70
2023-07-23T19:17:57.020Z,51.70
2023-07-23T19:20:25.005Z,51.70
2023-07-23T19:22:52.911Z,51.70
2023-07-23T19:25:22.183Z,51.70
2023-07-23T19:27:54.617Z,51.70
2023-07-23T19:30:22.502Z,51.70
2023-07-23T19:32:50.460Z,51.70
2023-07-23T19:35:18.574Z,51.70
2023-07-23T19:37:47.031Z,51.70
2023-07-23T19:40:15.004Z,51.70
2023-07-23T19:42:44.256Z,51.70
2023-07-23T19:45:12.450Z,51.70
2023-07-23T19:47:40.365Z,51.80
2023-07-23T19:50:09.332Z,51.70
2023-07-23T19:52:37.232Z,51.70
2023-07-23T19:55:05.453Z,51.70
2023-07-23T19:57:33.408Z,51.70
2023-07-23T20:00:06.228Z,51.70
2023-07-23T20:02:34.255Z,51.70
2023-07-23T20:05:02.463Z,51.80
2023-07-23T20:07:30.389Z,51.70
2023-07-23T20:09:58.305Z,51.80
2023-07-23T20:12:26.203Z,51.80
2023-07-23T20:14:54.142Z,51.80
2023-07-23T20:17:23.600Z,51.70
2023-07-23T20:19:51.734Z,51.80
2023-07-23T20:22:19.682Z,51.80
2023-07-23T20:24:48.413Z,51.80
2023-07-23T20:27:16.697Z,51.80
2023-07-23T20:29:45.296Z,51.70
2023-07-23T20:32:14.759Z,51.80
2023-07-23T20:34:44.636Z,51.80
2023-07-23T20:37:14.973Z,51.80
2023-07-23T20:39:44.248Z,51.80
2023-07-23T20:42:13.640Z,51.80
2023-07-23T20:44:43.750Z,51.80
2023-07-23T20:47:11.944Z,51.80
2023-07-23T20:49:39.956Z,51.80
2023-07-23T20:52:09.212Z,51.80
2023-07-23T20:54:37.175Z,51.80
2023-07-23T20:57:05.594Z,51.80
2023-07-23T20:59:33.544Z,51.80
2023-07-23T21:02:01.513Z,51.80
2023-07-23T21:04:29.435Z,51.80
2023-07-23T21:06:57.389Z,51.80
2023-07-23T21:09:26.941Z,51.80
2023-07-23T21:11:54.933Z,51.80
2023-07-23T21:14:22.855Z,51.80
2023-07-23T21:16:50.814Z,51.70
2023-07-23T21:19:18.791Z,51.80
2023-07-23T21:21:46.709Z,51.80
2023-07-23T21:24:14.860Z,51.80
2023-07-23T21:26:45.795Z,51.80
2023-07-23T21:29:13.772Z,51.80
2023-07-23T21:31:41.713Z,51.80
2023-07-23T21:34:09.681Z,51.80
2023-07-23T21:36:37.624Z,51.80
2023-07-23T21:39:05.633Z,51.80
2023-07-23T21:41:33.591Z,51.80
2023-07-23T21:44:02.871Z,51.80
2023-07-23T21:46:30.918Z,51.80
2023-07-23T21:48:59.098Z,51.80
2023-07-23T21:51:27.029Z,51.80
2023-07-23T21:53:54.963Z,51.80
2023-07-23T21:56:22.943Z,51.80
2023-07-23T21:58:50.844Z,51.80
2023-07-23T22:01:20.143Z,51.80
2023-07-23T22:03:48.221Z,51.80
2023-07-23T22:06:16.307Z,51.80
2023-07-23T22:08:44.296Z,51.80
2023-07-23T22:11:12.248Z,51.80
2023-07-23T22:13:40.203Z,51.80
2023-07-23T22:16:08.216Z,51.80
2023-07-23T22:18:37.574Z,51.80
2023-07-23T22:21:05.608Z,51.80
2023-07-23T22:23:33.597Z,51.80
2023-07-23T22:26:01.539Z,51.80
2023-07-23T22:28:29.503Z,51.80
2023-07-23T22:30:57.444Z,51.80
2023-07-23T22:33:25.370Z,51.80
2023-07-23T22:35:54.655Z,51.80
2023-07-23T22:38:22.612Z,51.80
2023-07-23T22:40:50.520Z,51.80
2023-07-23T22:43:18.648Z,51.80
2023-07-23T22:45:46.610Z,51.80
2023-07-23T22:48:17.018Z,51.80
2023-07-23T22:50:45.686Z,51.80
2023-07-23T22:53:15.118Z,51.80
2023-07-23T22:55:43.174Z,51.80
2023-07-23T22:58:11.318Z,51.80
2023-07-23T23:00:39.241Z,51.80
2023-07-23T23:03:09.643Z,51.80
2023-07-23T23:05:37.838Z,51.80
2023-07-23T23:08:05.934Z,51.80
2023-07-23T23:10:35.228Z,51.80
2023-07-23T23:13:03.524Z,51.80
2023-07-23T23:15:31.904Z,51.90
2023-07-23T23:17:59.824Z,51.80
2023-07-23T23:20:27.813Z,51.80
2023-07-23T23:22:55.705Z,51.80
2023-07-23T23:25:23.825Z,51.80
2023-07-23T23:27:53.092Z,51.80
2023-07-23T23:30:22.083Z,51.80
2023-07-23T23:32:50.063Z,51.80
2023-07-23T23:35:18.184Z,51.80
2023-07-23T23:37:46.535Z,51.80
2023-07-23T23:40:15.973Z,51.80
2023-07-23T23:42:43.884Z,51.80
2023-07-23T23:45:13.151Z,51.80
2023-07-23T23:47:41.236Z,51.80
2023-07-23T23:50:10.532Z,51.80
2023-07-23T23:52:38.541Z,51.80
2023-07-23T23:55:07.047Z,51.80
2023-07-23T23:57:35.052Z,51.80
